KEWRTNCM

Guest
Details From KEWR - Newark Liberty Intl
To TNCM - St Maarten - Princess Juliana Intl
Flight Number -
Tags decoded
Created
Modified
Stats Distance 1,476 nm / 2,733 km
Max Altitude 0 ft / 0 m
Waypoints 2
Social Downloads 0
Likes 0
Share VATSIM

Download

Looking for another format? Having issues loading an existing format? Contact us
Advertisement - Login to hide

Notes

Requested: KEWR TNCM

Route

KEWR TNCM

ID Type Via Altitude Latitude Longitude Leg Dist Tot Dist Heading (true) Name
O KEWR APT - 0 ft / 0 m 40.69363˚ -74.16856˚ - 0 nm - Newark Liberty Intl
O TNCM APT - 0 ft / 0 m 18.04089˚ -63.10897˚ 1475 nm 1475 nm 154° / 160° St Maarten - Princess Juliana Intl

Altitude Profile

Advertisement - Login to hide

Weather


0- 5 10 15 20 25 30 35+ Temperature / ° C

Clouds and Precipitation
Forecast for 2018-05-26 12:00 UTC. Updated 3 hours ago

Ground ~20,000 ft ~40,000 ft Winds

KEWR

Details ICAO KEWR (EWR)
Name Newark Liberty Intl
Region United States
Timezone America/New_York (UTC-4.0)
Stats Elevation 18 ft / 5 m (AMSL)
Location 40.693633° -74.168565°
Runways 3
Magnetic Variation 12.800° W

METAR

KEWR 261351Z 23005KT 10SM FEW080 FEW140 BKN250 28/20 A2983 RMK AO2 SLP099 T02780200

Decode

TAF

KEWR 261141Z 2612/2718 23009KT P6SM FEW250 FM261900 24010G18KT P6SM SCT060 BKN150 FM262000 24009KT P6SM VCTS SCT060CB BKN120 FM270000 25008KT 5SM -SHRA VCTS SCT060CB BKN120 FM270500 VRB04KT 5SM -SHRA SCT045 OVC100 FM271100 04008KT 5SM -RA OVC025 FM271200 05009KT 5SM -RA OVC015

Decode

Departure Runways

ID Width Length Bearing (true) Bearing (mag) Surface Threshold Offset Overrun Length
04L 150 ft / 46 m 11,009 ft / 3,356 m 25.73° 38.53° Asphalt 2,543 ft / 775 m 600 ft / 183 m
04R 150 ft / 46 m 10,008 ft / 3,051 m 25.73° 38.53° Asphalt 1,191 ft / 363 m 299 ft / 91 m
11 150 ft / 46 m 6,785 ft / 2,068 m 95.01° 107.81° Asphalt 0 ft / 0 m 299 ft / 91 m
22L 150 ft / 46 m 10,008 ft / 3,051 m 205.74° 218.54° Asphalt 1,795 ft / 547 m 801 ft / 244 m
22R 150 ft / 46 m 11,009 ft / 3,356 m 205.74° 218.54° Asphalt 1,424 ft / 434 m 699 ft / 213 m
29 150 ft / 46 m 6,785 ft / 2,068 m 275.02° 287.82° Asphalt 299 ft / 91 m 98 ft / 30 m

TNCM

Details ICAO TNCM (SXM)
Name St Maarten - Princess Juliana Intl
Region Caribbean Netherlands, Aruba, Curaçao, Sint Maarten
Timezone Unknown (UTC+0.0)
Stats Elevation 12 ft / 4 m (AMSL)
Location 18.040889° -63.108974°
Runways 1
Magnetic Variation 14.337° W

METAR

TNCM 261400Z 10011KT 060V140 9999 FEW022 29/22 Q1017 A3004 NOSIG

Decode

TAF

TAF TNCM 261143Z 2612/2712 09010KT P6SM FEW018 FM261400 11014KT P6SM SCT020 FM262300 09010KT P6SM VCSH SCT018 SCT040

Decode

Destination Runways

ID Width Length Bearing (true) Bearing (mag) Surface Threshold Offset Overrun Length
10 148 ft / 45 m 7,464 ft / 2,275 m 81.43° 95.77° Asphalt 0 ft / 0 m 151 ft / 46 m
28 148 ft / 45 m 7,464 ft / 2,275 m 261.44° 275.78° Asphalt 397 ft / 121 m 0 ft / 0 m

Popular Alternatives